Hauptseite
METAR-TAF:

METAR-TAF

Flughäfen :

Westerland, Deutschland

Flughafen Sylt

Breite: 54-55N, Länge: 008-21E, Höhe: 16 m

Beobachtung

Neuester Wetterbericht von vor 38 Minuten, um 13:20 UTC
Wind 15 kt aus Ost
Temperatur 2°C
Luftfeuchtigkeit 55%
Luftdruck 1034 hPa
Sichtweite 10 km oder mehr
Leicht bewölkt in der Höhe von 3200 ft

METAR: EDXW 241320Z 10015KT 9999 FEW032 02/M06 Q1034

Zeit: 14:58 (13:58 UTC)

Prognose

Neuester Wetterbericht von vor 2 Stunden und 58 Minuten, um 11:00 UTC
Gültige Prognose vom 24 um 12 UTC bis 24 um 18 UTC
Wind 15 kt aus Ost
Sichtweite 10 km oder mehr
Aufgelockert bewölkt in der Höhe von 2500 ft
Zeitweise
vom 24 um 12 UTC bis 24 um 18 UTC
Wind 15 kt aus Ost/Nordost, Böen bis zu 25 kt

TAF: EDXW 241100Z 2412/2418 09015KT 9999 SCT025 TEMPO 2412/2418 07015G25KT

Wetterbeobachtungen und Prognosen von mehr als 4000 Flughäfen (METAR und TAF Bericht).

Die verfügbaren Stationen werden durch gelbe und rote Markierungen auf der Karte dargestellt.

Führen Sie die Maus auf sie, um den Namen der Station zu sehen.

Darauf klicken, um die Beobachtung von Wetterbeobachtungen und Prognosen zu sehen.

Um die Karte zu ändern : klicken Sie auf den grünen Tasten mit einem schwarzen Kreuz Zum Vergrößern, auf den grünen Button mit einem Gedankenstrich zu verkleinern, oder auf die grünen Pfeile für benachbarte Karten.


METAR-TAF: